createdAt,value
2018-10-01T00:00:01.220Z,99.90
2018-10-01T00:02:29.599Z,99.90
2018-10-01T00:04:57.972Z,99.90
2018-10-01T00:07:26.299Z,99.90
2018-10-01T00:09:54.635Z,99.90
2018-10-01T00:12:23.025Z,99.90
2018-10-01T00:14:51.287Z,99.90
2018-10-01T00:17:19.645Z,99.90
2018-10-01T00:19:53.194Z,99.90
2018-10-01T00:22:26.877Z,99.90
2018-10-01T00:24:55.217Z,99.90
2018-10-01T00:27:23.597Z,99.90
2018-10-01T00:29:51.927Z,99.90
2018-10-01T00:32:20.277Z,99.90
2018-10-01T00:34:48.632Z,99.90
2018-10-01T00:37:16.956Z,99.90
2018-10-01T00:39:45.273Z,99.90
2018-10-01T00:42:13.657Z,99.90
2018-10-01T00:44:41.981Z,99.90
2018-10-01T00:47:10.312Z,99.90
2018-10-01T00:49:38.676Z,99.90
2018-10-01T00:52:07.156Z,99.90
2018-10-01T00:54:35.524Z,99.90
2018-10-01T00:57:03.845Z,99.90
2018-10-01T00:59:32.181Z,99.90
2018-10-01T01:02:00.549Z,99.90
2018-10-01T01:04:28.906Z,99.90
2018-10-01T01:06:57.246Z,99.90
2018-10-01T01:09:25.596Z,99.90
2018-10-01T01:11:54.066Z,99.90
2018-10-01T01:14:22.385Z,99.90
2018-10-01T01:16:50.720Z,99.90
2018-10-01T01:19:19.068Z,99.90
2018-10-01T01:21:47.461Z,99.90
2018-10-01T01:24:15.827Z,99.90
2018-10-01T01:26:44.143Z,99.90
2018-10-01T01:29:12.497Z,99.90
2018-10-01T01:31:40.867Z,99.90
2018-10-01T01:34:09.212Z,99.90
2018-10-01T01:36:37.570Z,99.90
2018-10-01T01:39:08.605Z,99.90
2018-10-01T01:41:37.226Z,99.90
2018-10-01T01:44:05.593Z,99.90
2018-10-01T01:46:33.915Z,99.90
2018-10-01T01:49:02.635Z,99.90
2018-10-01T01:51:30.988Z,99.90
2018-10-01T01:53:59.312Z,99.90
2018-10-01T01:56:27.670Z,99.90
2018-10-01T01:58:55.993Z,99.90
2018-10-01T02:01:24.593Z,99.90
2018-10-01T02:03:52.909Z,99.90
2018-10-01T02:06:21.283Z,99.90
2018-10-01T02:08:49.620Z,99.90
2018-10-01T02:11:17.931Z,99.90
2018-10-01T02:13:46.284Z,99.90
2018-10-01T02:16:14.604Z,99.90
2018-10-01T02:18:42.990Z,99.90
2018-10-01T02:21:11.295Z,99.90
2018-10-01T02:23:39.625Z,99.90
2018-10-01T02:26:07.995Z,99.90
2018-10-01T02:28:36.369Z,99.90
2018-10-01T02:31:04.675Z,99.90
2018-10-01T02:33:33.039Z,99.90
2018-10-01T02:36:01.372Z,99.90
2018-10-01T02:38:29.688Z,99.90
2018-10-01T02:40:58.089Z,99.90
2018-10-01T02:43:26.397Z,99.90
2018-10-01T02:45:54.710Z,99.90
2018-10-01T02:48:23.058Z,99.90
2018-10-01T02:50:51.391Z,99.90
2018-10-01T02:53:25.136Z,99.90
2018-10-01T02:55:53.461Z,99.90
2018-10-01T02:58:21.789Z,99.90
2018-10-01T03:00:50.268Z,99.90
2018-10-01T03:03:18.573Z,99.90
2018-10-01T03:05:46.917Z,99.90
2018-10-01T03:08:15.248Z,99.90
2018-10-01T03:10:43.584Z,99.90
2018-10-01T03:13:11.895Z,99.90
2018-10-01T03:15:40.276Z,99.90
2018-10-01T03:18:08.947Z,99.90
2018-10-01T03:20:37.439Z,99.90
2018-10-01T03:23:05.849Z,99.90
2018-10-01T03:25:34.337Z,99.90
2018-10-01T03:28:02.883Z,99.90
2018-10-01T03:30:31.248Z,99.90
2018-10-01T03:32:59.577Z,99.90
2018-10-01T03:35:27.936Z,99.90
2018-10-01T03:37:56.304Z,99.90
2018-10-01T03:40:24.662Z,99.90
2018-10-01T03:42:52.988Z,99.90
2018-10-01T03:45:21.317Z,99.90
2018-10-01T03:47:49.659Z,99.90
2018-10-01T03:50:18.053Z,99.90
2018-10-01T03:52:46.344Z,99.90
2018-10-01T03:55:14.669Z,99.90
2018-10-01T03:57:42.993Z,99.90
2018-10-01T04:00:11.360Z,99.90
2018-10-01T04:02:39.702Z,99.90
2018-10-01T04:05:08.066Z,99.90
2018-10-01T04:07:36.433Z,99.90
2018-10-01T04:10:04.796Z,99.90
2018-10-01T04:12:33.141Z,99.90
2018-10-01T04:15:01.501Z,99.90
2018-10-01T04:17:29.856Z,99.90
2018-10-01T04:19:58.178Z,99.90
2018-10-01T04:22:31.859Z,99.90
2018-10-01T04:25:00.296Z,99.90
2018-10-01T04:27:28.629Z,99.90
2018-10-01T04:29:56.937Z,99.90
2018-10-01T04:32:25.289Z,99.90
2018-10-01T04:34:53.629Z,99.90
2018-10-01T04:37:21.967Z,99.90
2018-10-01T04:39:50.305Z,99.90
2018-10-01T04:42:19.268Z,99.90
2018-10-01T04:44:47.589Z,99.90
2018-10-01T04:47:15.940Z,99.90
2018-10-01T04:49:44.248Z,99.90
2018-10-01T04:52:12.579Z,99.90
2018-10-01T04:54:40.920Z,99.90
2018-10-01T04:57:09.231Z,99.90
2018-10-01T04:59:37.560Z,99.90
2018-10-01T05:02:05.931Z,99.90
2018-10-01T05:04:34.425Z,99.90
2018-10-01T05:07:02.785Z,99.90
2018-10-01T05:09:31.110Z,99.90
2018-10-01T05:11:59.513Z,99.90
2018-10-01T05:14:27.845Z,99.90
2018-10-01T05:16:56.188Z,99.90
2018-10-01T05:19:24.518Z,99.90
2018-10-01T05:21:52.837Z,99.90
2018-10-01T05:24:21.196Z,99.90
2018-10-01T05:26:49.521Z,99.90
2018-10-01T05:29:17.853Z,99.90
2018-10-01T05:31:46.218Z,99.90
2018-10-01T05:34:14.544Z,99.90
2018-10-01T05:36:42.894Z,99.90
2018-10-01T05:39:12.501Z,99.90
2018-10-01T05:41:40.816Z,99.90
2018-10-01T05:44:09.272Z,99.90
2018-10-01T05:46:37.668Z,99.90
2018-10-01T05:49:06.156Z,99.90
2018-10-01T05:51:34.604Z,99.90
2018-10-01T05:54:02.956Z,99.90
2018-10-01T05:56:31.290Z,99.90
2018-10-01T05:58:59.690Z,99.90
2018-10-01T06:01:28.056Z,99.90
2018-10-01T06:03:57.816Z,99.90
2018-10-01T06:06:40.985Z,99.90
2018-10-01T06:09:10.613Z,99.90
2018-10-01T06:11:38.984Z,99.90
2018-10-01T06:14:07.472Z,99.90
2018-10-01T06:16:35.920Z,99.90
2018-10-01T06:19:04.461Z,99.90
2018-10-01T06:21:32.816Z,99.90
2018-10-01T06:24:01.218Z,99.90
2018-10-01T06:26:29.763Z,99.90
2018-10-01T06:28:58.223Z,99.90
2018-10-01T06:31:26.537Z,99.90
2018-10-01T06:33:54.893Z,99.90
2018-10-01T06:36:23.321Z,99.90
2018-10-01T06:38:51.603Z,99.90
2018-10-01T06:41:19.995Z,99.90
2018-10-01T06:43:48.344Z,99.90
2018-10-01T06:46:16.703Z,99.90
2018-10-01T06:48:45.164Z,99.90
2018-10-01T06:51:13.576Z,99.90
2018-10-01T06:53:41.877Z,99.90
2018-10-01T06:56:10.214Z,99.90
2018-10-01T06:58:38.607Z,99.90
2018-10-01T07:01:07.228Z,99.90
2018-10-01T07:03:35.547Z,99.90
2018-10-01T07:06:03.972Z,99.90
2018-10-01T07:08:33.229Z,99.90
2018-10-01T07:11:01.643Z,99.90
2018-10-01T07:13:30.004Z,99.90
2018-10-01T07:15:58.406Z,99.90
2018-10-01T07:18:26.974Z,99.90
2018-10-01T07:20:55.379Z,99.90
2018-10-01T07:23:23.896Z,99.90
2018-10-01T07:25:52.168Z,99.90
2018-10-01T07:28:20.528Z,99.90
2018-10-01T07:30:48.964Z,99.90
2018-10-01T07:33:17.373Z,99.90
2018-10-01T07:35:45.741Z,99.90
2018-10-01T07:38:14.097Z,99.90
2018-10-01T07:40:42.501Z,99.90
2018-10-01T07:43:10.889Z,99.90
2018-10-01T07:45:39.255Z,99.90
2018-10-01T07:48:07.620Z,99.90
2018-10-01T07:50:36.060Z,99.90
2018-10-01T07:53:04.420Z,99.90
2018-10-01T07:55:32.780Z,99.90
2018-10-01T07:58:01.128Z,99.90
2018-10-01T08:00:29.591Z,99.90
2018-10-01T08:02:57.886Z,99.90
2018-10-01T08:05:26.290Z,99.90
2018-10-01T08:07:54.761Z,99.90
2018-10-01T08:10:23.121Z,99.90
2018-10-01T08:12:51.448Z,99.90
2018-10-01T08:15:19.837Z,99.90
2018-10-01T08:17:48.208Z,99.90
2018-10-01T08:20:16.730Z,99.90
2018-10-01T08:22:44.977Z,99.90
2018-10-01T08:25:13.326Z,99.90
2018-10-01T08:27:41.721Z,99.90
2018-10-01T08:30:10.152Z,99.90
2018-10-01T08:32:38.522Z,99.90
2018-10-01T08:35:06.907Z,99.90
2018-10-01T08:37:35.245Z,99.90
2018-10-01T08:40:03.713Z,99.90
2018-10-01T08:42:32.048Z,99.90
2018-10-01T08:45:00.367Z,99.90
2018-10-01T08:47:28.989Z,99.90
2018-10-01T08:50:02.757Z,99.90
2018-10-01T08:52:40.333Z,99.90
2018-10-01T08:55:08.717Z,99.90
2018-10-01T08:57:37.041Z,99.90
2018-10-01T09:00:05.492Z,99.90
2018-10-01T09:02:33.882Z,99.90
2018-10-01T09:05:02.223Z,99.90
2018-10-01T09:07:30.484Z,99.90
2018-10-01T09:09:58.829Z,99.90
2018-10-01T09:12:27.183Z,99.90
2018-10-01T09:14:55.591Z,99.90
2018-10-01T09:17:23.969Z,99.90
2018-10-01T09:19:52.269Z,99.90
2018-10-01T09:22:20.608Z,99.90
2018-10-01T09:24:48.992Z,99.90
2018-10-01T09:27:17.356Z,99.90
2018-10-01T09:29:45.708Z,99.90
2018-10-01T09:32:14.123Z,99.90
2018-10-01T09:34:42.419Z,99.90
2018-10-01T09:37:10.810Z,99.90
2018-10-01T09:39:39.204Z,99.90
2018-10-01T09:42:07.572Z,99.90
2018-10-01T09:44:35.942Z,99.90
2018-10-01T09:47:04.264Z,99.90
2018-10-01T09:49:32.611Z,99.90
2018-10-01T09:52:00.966Z,99.90
2018-10-01T09:54:29.275Z,99.90
2018-10-01T09:56:57.656Z,99.90
2018-10-01T09:59:25.996Z,99.90
2018-10-01T10:01:54.324Z,99.90
2018-10-01T10:04:22.780Z,99.90
2018-10-01T10:06:51.164Z,99.90
2018-10-01T10:09:19.492Z,99.90
2018-10-01T10:11:47.856Z,99.90
2018-10-01T10:14:16.315Z,99.90
2018-10-01T10:16:44.596Z,99.90
2018-10-01T10:19:12.962Z,99.90
2018-10-01T10:21:41.297Z,99.90
2018-10-01T10:24:09.650Z,99.90
2018-10-01T10:26:38.037Z,99.90
2018-10-01T10:29:06.341Z,99.90
2018-10-01T10:31:34.688Z,99.90
2018-10-01T10:34:03.073Z,99.90
2018-10-01T10:36:31.351Z,99.90
2018-10-01T10:38:59.696Z,99.90
2018-10-01T10:41:27.995Z,99.90
2018-10-01T10:43:56.354Z,99.90
2018-10-01T10:46:24.700Z,99.90
2018-10-01T10:48:53.048Z,99.90
2018-10-01T10:51:21.421Z,99.90
2018-10-01T10:53:49.736Z,99.90
2018-10-01T10:56:18.079Z,99.90
2018-10-01T10:58:46.424Z,99.90
2018-10-01T11:01:14.744Z,99.90
2018-10-01T11:03:43.092Z,99.90
2018-10-01T11:06:11.488Z,99.90
2018-10-01T11:08:39.886Z,99.90
2018-10-01T11:11:08.239Z,99.90
2018-10-01T11:13:36.607Z,99.90
2018-10-01T11:16:05.072Z,99.90
2018-10-01T11:18:33.524Z,99.90
2018-10-01T11:21:01.915Z,99.90
2018-10-01T11:23:30.277Z,99.90
2018-10-01T11:25:58.512Z,99.90
2018-10-01T11:28:26.899Z,99.90
2018-10-01T11:30:55.317Z,99.90
2018-10-01T11:33:23.728Z,99.90
2018-10-01T11:35:52.036Z,99.90
2018-10-01T11:38:20.424Z,99.90
2018-10-01T11:40:48.732Z,99.90
2018-10-01T11:43:17.068Z,99.90
2018-10-01T11:45:45.559Z,99.90
2018-10-01T11:48:13.818Z,99.90
2018-10-01T11:50:42.721Z,99.90
2018-10-01T11:53:11.161Z,99.90
2018-10-01T11:55:39.488Z,99.90
2018-10-01T11:58:07.850Z,99.90
2018-10-01T12:00:36.279Z,99.90
2018-10-01T12:03:04.664Z,99.90
2018-10-01T12:05:33.012Z,99.90
2018-10-01T12:08:01.381Z,99.90
2018-10-01T12:10:29.744Z,99.90
2018-10-01T12:12:58.137Z,99.90
2018-10-01T12:15:26.564Z,99.90
2018-10-01T12:17:54.856Z,99.90
2018-10-01T12:20:23.205Z,99.90
2018-10-01T12:22:51.569Z,99.90
2018-10-01T12:25:19.895Z,99.90
2018-10-01T12:27:48.283Z,99.90
2018-10-01T12:30:16.798Z,99.90
2018-10-01T12:32:45.152Z,99.90
2018-10-01T12:35:13.563Z,99.90
2018-10-01T12:37:41.892Z,99.90
2018-10-01T12:40:10.288Z,99.90
2018-10-01T12:42:38.830Z,99.90
2018-10-01T12:45:07.751Z,99.90
2018-10-01T12:47:36.078Z,99.90
2018-10-01T12:50:04.509Z,99.90
2018-10-01T12:52:33.061Z,99.90
2018-10-01T12:55:01.588Z,99.90
2018-10-01T12:57:29.907Z,99.90
2018-10-01T12:59:58.233Z,99.90
2018-10-01T13:02:26.576Z,99.90
2018-10-01T13:04:54.960Z,99.90
2018-10-01T13:07:23.410Z,99.90
2018-10-01T13:09:51.895Z,99.90
2018-10-01T13:12:20.407Z,99.90
2018-10-01T13:14:48.702Z,99.90
2018-10-01T13:17:17.004Z,99.90
2018-10-01T13:19:45.304Z,99.90
2018-10-01T13:22:13.698Z,97.90
2018-10-01T13:24:42.772Z,96.30
2018-10-01T13:27:10.998Z,97.50
2018-10-01T13:29:39.309Z,98.00
2018-10-01T13:32:07.827Z,98.80
2018-10-01T13:34:36.163Z,96.30
2018-10-01T13:37:04.935Z,96.50
2018-10-01T13:39:33.501Z,96.40
2018-10-01T13:42:02.058Z,95.00
2018-10-01T13:44:30.398Z,95.70
2018-10-01T13:46:58.749Z,97.00
2018-10-01T13:49:27.126Z,97.40
2018-10-01T13:51:55.528Z,97.30
2018-10-01T13:54:23.880Z,95.20
2018-10-01T13:56:52.245Z,95.70
2018-10-01T13:59:20.599Z,96.00
2018-10-01T14:01:49.015Z,97.10
2018-10-01T14:04:17.431Z,95.90
2018-10-01T14:06:45.753Z,96.40
2018-10-01T14:09:14.083Z,95.90
2018-10-01T14:11:42.449Z,94.90
2018-10-01T14:14:10.763Z,96.30
2018-10-01T14:16:39.135Z,93.30
2018-10-01T14:19:07.531Z,92.60
2018-10-01T14:21:35.887Z,92.00
2018-10-01T14:24:04.260Z,91.80
2018-10-01T14:26:32.665Z,91.30
2018-10-01T14:29:01.049Z,93.50
2018-10-01T14:31:29.364Z,95.50
2018-10-01T14:33:57.724Z,95.60
2018-10-01T14:36:26.044Z,94.90
2018-10-01T14:38:54.399Z,95.30
2018-10-01T14:41:22.809Z,94.30
2018-10-01T14:43:51.216Z,95.00
2018-10-01T14:46:19.544Z,93.30
2018-10-01T14:48:47.864Z,92.10
2018-10-01T14:51:16.287Z,91.90
2018-10-01T14:53:44.614Z,92.20
2018-10-01T14:56:12.944Z,92.30
2018-10-01T14:58:41.493Z,92.50
2018-10-01T15:01:09.824Z,93.00
2018-10-01T15:03:38.352Z,92.60
2018-10-01T15:06:06.852Z,93.80
2018-10-01T15:08:35.346Z,94.30
2018-10-01T15:11:03.750Z,94.60
2018-10-01T15:13:32.051Z,95.10
2018-10-01T15:16:00.676Z,95.80
2018-10-01T15:18:30.013Z,96.60
2018-10-01T15:21:01.963Z,97.40
2018-10-01T15:23:31.240Z,98.30
2018-10-01T15:26:03.318Z,98.10
2018-10-01T15:28:32.555Z,98.30
2018-10-01T15:31:03.382Z,99.30
2018-10-01T15:33:32.379Z,99.80
2018-10-01T15:36:00.943Z,99.90
2018-10-01T15:38:29.432Z,99.90
2018-10-01T15:40:57.824Z,99.90
2018-10-01T15:43:26.308Z,99.90
2018-10-01T15:45:54.681Z,99.90
2018-10-01T15:48:23.173Z,99.90
2018-10-01T15:50:51.561Z,99.90
2018-10-01T15:53:19.944Z,99.90
2018-10-01T15:55:48.405Z,99.90
2018-10-01T15:58:16.813Z,99.90
2018-10-01T16:00:45.193Z,99.90
2018-10-01T16:03:13.641Z,99.90
2018-10-01T16:05:42.062Z,99.90
2018-10-01T16:08:10.423Z,99.90
2018-10-01T16:10:38.863Z,99.90
2018-10-01T16:13:07.229Z,99.90
2018-10-01T16:15:35.660Z,99.90
2018-10-01T16:18:04.084Z,99.90
2018-10-01T16:20:32.445Z,99.90
2018-10-01T16:23:00.825Z,99.90
2018-10-01T16:25:29.405Z,99.90
2018-10-01T16:27:57.855Z,99.90
2018-10-01T16:30:26.239Z,99.90
2018-10-01T16:32:54.687Z,99.90
2018-10-01T16:35:23.099Z,99.90
2018-10-01T16:37:51.788Z,99.90
2018-10-01T16:40:20.212Z,99.90
2018-10-01T16:42:48.582Z,99.90
2018-10-01T16:45:17.003Z,99.90
2018-10-01T16:47:45.376Z,99.90
2018-10-01T16:50:13.796Z,99.90
2018-10-01T16:52:43.382Z,99.90
2018-10-01T16:55:12.064Z,99.90
2018-10-01T16:57:40.483Z,99.90
2018-10-01T17:00:08.951Z,99.90
2018-10-01T17:02:37.440Z,99.90
2018-10-01T17:05:06.305Z,99.90
2018-10-01T17:07:35.025Z,99.90
2018-10-01T17:10:03.925Z,99.90
2018-10-01T17:12:32.290Z,99.90
2018-10-01T17:15:00.732Z,99.90
2018-10-01T17:17:29.307Z,99.90
2018-10-01T17:19:58.558Z,99.90
2018-10-01T17:22:27.001Z,99.90
2018-10-01T17:24:55.394Z,99.90
2018-10-01T17:27:23.822Z,99.90
2018-10-01T17:29:52.269Z,99.90
2018-10-01T17:32:20.737Z,99.90
2018-10-01T17:34:49.255Z,99.90
2018-10-01T17:37:17.702Z,99.90
2018-10-01T17:39:46.138Z,99.90
2018-10-01T17:42:14.655Z,99.90
2018-10-01T17:44:43.097Z,99.90
2018-10-01T17:47:11.535Z,99.90
2018-10-01T17:49:40.096Z,99.90
2018-10-01T17:52:08.485Z,99.90
2018-10-01T17:54:36.969Z,99.90
2018-10-01T17:57:05.421Z,99.90
2018-10-01T17:59:33.929Z,99.90
2018-10-01T18:02:02.554Z,99.90
2018-10-01T18:04:31.256Z,99.90
2018-10-01T18:06:59.881Z,99.90
2018-10-01T18:09:28.714Z,99.90
2018-10-01T18:11:57.655Z,99.90
2018-10-01T18:14:26.239Z,99.90
2018-10-01T18:16:54.712Z,99.90
2018-10-01T18:19:23.123Z,99.90
2018-10-01T18:21:51.608Z,99.90
2018-10-01T18:24:20.015Z,99.90
2018-10-01T18:26:48.448Z,99.90
2018-10-01T18:29:16.921Z,99.90
2018-10-01T18:31:45.626Z,99.90
2018-10-01T18:34:14.053Z,99.90
2018-10-01T18:36:42.774Z,99.90
2018-10-01T18:39:16.927Z,99.90
2018-10-01T18:41:46.035Z,99.90
2018-10-01T18:44:14.560Z,99.90
2018-10-01T18:46:43.406Z,99.90
2018-10-01T18:49:12.832Z,99.90
2018-10-01T18:51:41.525Z,99.90
2018-10-01T18:54:09.971Z,99.90
2018-10-01T18:56:38.492Z,99.90
2018-10-01T18:59:07.605Z,99.90
2018-10-01T19:01:36.707Z,99.90
2018-10-01T19:04:05.570Z,99.90
2018-10-01T19:06:34.280Z,99.90
2018-10-01T19:09:02.846Z,99.90
2018-10-01T19:11:31.329Z,99.90
2018-10-01T19:13:59.752Z,99.90
2018-10-01T19:16:28.247Z,99.90
2018-10-01T19:18:56.989Z,99.90
2018-10-01T19:21:26.022Z,99.90
2018-10-01T19:23:54.508Z,99.90
2018-10-01T19:26:23.032Z,99.90
2018-10-01T19:28:51.539Z,99.90
2018-10-01T19:31:20.129Z,99.90
2018-10-01T19:33:48.624Z,99.90
2018-10-01T19:36:17.176Z,99.90
2018-10-01T19:38:45.956Z,99.90
2018-10-01T19:41:14.573Z,99.90
2018-10-01T19:43:43.024Z,99.90
2018-10-01T19:46:11.519Z,99.90
2018-10-01T19:48:40.026Z,99.90
2018-10-01T19:51:09.017Z,99.90
2018-10-01T19:53:38.043Z,99.90
2018-10-01T19:56:07.014Z,99.90
2018-10-01T19:58:36.241Z,99.90
2018-10-01T20:01:04.802Z,99.90
2018-10-01T20:03:33.282Z,99.90
2018-10-01T20:06:01.872Z,99.90
2018-10-01T20:08:30.554Z,99.90
2018-10-01T20:10:59.175Z,99.90
2018-10-01T20:13:27.580Z,99.90
2018-10-01T20:15:56.206Z,99.90
2018-10-01T20:18:24.652Z,99.90
2018-10-01T20:20:53.310Z,99.90
2018-10-01T20:23:22.053Z,99.90
2018-10-01T20:25:50.859Z,99.90
2018-10-01T20:28:19.491Z,99.90
2018-10-01T20:30:47.849Z,99.90
2018-10-01T20:33:16.646Z,99.90
2018-10-01T20:35:45.159Z,99.90
2018-10-01T20:38:13.636Z,99.90
2018-10-01T20:40:42.268Z,99.90
2018-10-01T20:43:10.790Z,99.90
2018-10-01T20:45:39.388Z,99.90
2018-10-01T20:48:07.868Z,99.90
2018-10-01T20:50:36.258Z,99.90
2018-10-01T20:53:04.775Z,99.90
2018-10-01T20:55:33.356Z,99.90
2018-10-01T20:58:01.895Z,99.90
2018-10-01T21:00:30.340Z,99.90
2018-10-01T21:02:59.844Z,99.90
2018-10-01T21:05:28.266Z,99.90
2018-10-01T21:07:56.706Z,99.90
2018-10-01T21:10:25.106Z,99.90
2018-10-01T21:12:53.556Z,99.90
2018-10-01T21:15:22.027Z,99.90
2018-10-01T21:17:50.496Z,99.90
2018-10-01T21:20:18.951Z,99.90
2018-10-01T21:22:47.383Z,99.90
2018-10-01T21:25:15.810Z,99.90
2018-10-01T21:27:44.261Z,99.90
2018-10-01T21:30:12.615Z,99.90
2018-10-01T21:32:41.018Z,99.90
2018-10-01T21:35:09.368Z,99.90
2018-10-01T21:37:37.716Z,99.90
2018-10-01T21:40:09.349Z,99.90
2018-10-01T21:42:37.718Z,99.90
2018-10-01T21:45:06.635Z,99.90
2018-10-01T21:47:35.153Z,99.90
2018-10-01T21:50:03.605Z,99.90
2018-10-01T21:52:32.088Z,99.90
2018-10-01T21:55:00.842Z,99.90
2018-10-01T21:57:29.204Z,99.90
2018-10-01T21:59:57.691Z,99.90
2018-10-01T22:02:26.155Z,99.90
2018-10-01T22:04:54.653Z,99.90
2018-10-01T22:07:23.085Z,99.90
2018-10-01T22:09:51.492Z,99.90
2018-10-01T22:12:19.888Z,99.90
2018-10-01T22:14:48.269Z,99.90
2018-10-01T22:17:16.670Z,99.90
2018-10-01T22:19:45.100Z,99.90
2018-10-01T22:22:13.495Z,99.90
2018-10-01T22:24:41.901Z,99.90
2018-10-01T22:27:10.304Z,99.90
2018-10-01T22:29:38.723Z,99.90
2018-10-01T22:32:07.244Z,99.90
2018-10-01T22:34:35.755Z,99.90
2018-10-01T22:37:04.169Z,99.90
2018-10-01T22:39:32.556Z,99.90
2018-10-01T22:42:01.002Z,99.90
2018-10-01T22:44:29.371Z,99.90
2018-10-01T22:46:57.740Z,99.90
2018-10-01T22:49:26.268Z,99.90
2018-10-01T22:51:54.642Z,99.90
2018-10-01T22:54:23.104Z,99.90
2018-10-01T22:56:51.499Z,99.90
2018-10-01T22:59:19.903Z,99.90
2018-10-01T23:01:48.249Z,99.90
2018-10-01T23:04:16.616Z,99.90
2018-10-01T23:06:45.135Z,99.90
2018-10-01T23:09:13.522Z,99.90
2018-10-01T23:11:41.893Z,99.90
2018-10-01T23:14:10.292Z,99.90
2018-10-01T23:16:38.789Z,99.90
2018-10-01T23:19:07.221Z,99.90
2018-10-01T23:21:35.628Z,99.90
2018-10-01T23:24:03.987Z,99.90
2018-10-01T23:26:32.328Z,99.90
2018-10-01T23:29:00.771Z,99.90
2018-10-01T23:31:29.209Z,99.90
2018-10-01T23:33:57.562Z,99.90
2018-10-01T23:36:25.955Z,99.90
2018-10-01T23:38:54.311Z,99.90
2018-10-01T23:41:22.721Z,99.90
2018-10-01T23:43:51.132Z,99.90
2018-10-01T23:46:19.509Z,99.90
2018-10-01T23:48:47.948Z,99.90
2018-10-01T23:51:16.364Z,99.90
2018-10-01T23:53:44.821Z,99.90
2018-10-01T23:56:13.169Z,99.90
2018-10-01T23:58:41.517Z,99.90
